createdAt,value
2023-10-01T00:02:17.351Z,13.62
2023-10-01T00:07:19.064Z,13.50
2023-10-01T00:12:25.050Z,13.59
2023-10-01T00:17:26.750Z,13.66
2023-10-01T00:22:28.795Z,13.44
2023-10-01T00:27:30.472Z,13.55
2023-10-01T00:32:32.229Z,13.48
2023-10-01T00:37:34.715Z,13.27
2023-10-01T00:42:37.614Z,13.40
2023-10-01T00:47:42.770Z,13.37
2023-10-01T00:52:46.048Z,13.43
2023-10-01T00:57:47.955Z,13.48
2023-10-01T01:03:02.372Z,13.23
2023-10-01T01:08:22.241Z,13.30
2023-10-01T01:13:26.991Z,13.12
2023-10-01T01:18:29.203Z,13.22
2023-10-01T01:23:32.858Z,13.21
2023-10-01T01:28:36.995Z,13.16
2023-10-01T01:33:42.205Z,13.09
2023-10-01T01:39:11.186Z,13.12
2023-10-01T01:44:15.819Z,13.10
2023-10-01T01:49:21.375Z,13.11
2023-10-01T01:54:23.146Z,13.11
2023-10-01T01:59:28.669Z,12.93
2023-10-01T02:04:30.688Z,12.80
2023-10-01T02:09:32.479Z,12.96
2023-10-01T02:14:36.568Z,12.92
2023-10-01T02:19:38.374Z,12.84
2023-10-01T02:24:46.502Z,12.86
2023-10-01T02:30:07.065Z,12.81
2023-10-01T02:35:28.849Z,12.88
2023-10-01T02:40:38.030Z,12.84
2023-10-01T02:45:43.137Z,12.84
2023-10-01T02:50:46.853Z,12.90
2023-10-01T02:55:49.091Z,12.86
2023-10-01T03:00:54.381Z,12.81
2023-10-01T03:05:56.801Z,12.73
2023-10-01T03:10:58.459Z,12.72
2023-10-01T03:16:18.526Z,12.82
2023-10-01T03:21:37.867Z,12.81
2023-10-01T03:26:45.278Z,12.97
2023-10-01T03:31:47.693Z,12.96
2023-10-01T03:36:53.499Z,12.98
2023-10-01T03:42:04.957Z,12.96
2023-10-01T03:47:09.958Z,13.01
2023-10-01T03:52:22.199Z,12.99
2023-10-01T03:57:24.153Z,13.02
2023-10-01T04:02:30.086Z,13.05
2023-10-01T04:07:52.047Z,12.97
2023-10-01T04:12:56.260Z,13.01
2023-10-01T04:18:20.487Z,12.97
2023-10-01T04:23:30.496Z,13.02
2023-10-01T04:28:32.597Z,12.79
2023-10-01T04:33:35.640Z,12.99
2023-10-01T04:38:37.554Z,12.95
2023-10-01T04:43:52.918Z,13.08
2023-10-01T04:48:55.484Z,13.12
2023-10-01T04:54:01.413Z,13.10
2023-10-01T04:59:03.753Z,13.06
2023-10-01T05:04:05.791Z,13.02
2023-10-01T05:09:09.202Z,13.13
2023-10-01T05:14:13.227Z,13.11
2023-10-01T05:19:15.125Z,13.13
2023-10-01T05:24:32.510Z,13.22
2023-10-01T05:29:35.258Z,13.22
2023-10-01T05:34:39.284Z,13.27
2023-10-01T05:45:10.599Z,13.27
2023-10-01T05:50:14.095Z,13.31
2023-10-01T05:55:20.999Z,13.41
2023-10-01T06:00:28.848Z,13.32
2023-10-01T06:05:42.706Z,13.37
2023-10-01T06:11:05.600Z,13.47
2023-10-01T06:16:17.610Z,13.51
2023-10-01T06:21:26.420Z,13.42
2023-10-01T06:26:43.648Z,13.48
2023-10-01T06:31:50.856Z,13.51
2023-10-01T06:36:59.621Z,13.64
2023-10-01T06:42:21.497Z,13.86
2023-10-01T06:47:27.824Z,13.96
2023-10-01T06:52:34.053Z,14.02
2023-10-01T06:57:37.247Z,14.15
2023-10-01T07:02:40.781Z,14.15
2023-10-01T07:07:43.956Z,14.25
2023-10-01T07:12:59.244Z,14.27
2023-10-01T07:18:14.760Z,14.20
2023-10-01T07:23:20.052Z,14.37
2023-10-01T07:28:21.845Z,14.50
2023-10-01T07:33:23.821Z,14.70
2023-10-01T07:38:32.758Z,14.94
2023-10-01T07:43:34.643Z,15.12
2023-10-01T07:48:39.620Z,14.91
2023-10-01T07:53:43.591Z,15.09
2023-10-01T07:58:58.754Z,15.42
2023-10-01T08:04:01.319Z,15.49
2023-10-01T08:09:12.810Z,15.58
2023-10-01T08:14:17.276Z,15.74
2023-10-01T08:19:21.966Z,15.88
2023-10-01T08:24:34.839Z,15.98
2023-10-01T08:29:55.324Z,16.16
2023-10-01T08:35:03.094Z,16.35
2023-10-01T08:40:15.258Z,16.69
2023-10-01T08:45:18.623Z,16.65
2023-10-01T08:50:28.418Z,16.90
2023-10-01T08:55:48.334Z,17.00
2023-10-01T09:01:11.451Z,16.86
2023-10-01T09:06:33.423Z,17.10
2023-10-01T09:11:43.233Z,17.25
2023-10-01T09:16:47.490Z,17.44
2023-10-01T09:21:49.323Z,17.58
2023-10-01T09:26:57.470Z,17.52
2023-10-01T09:32:00.031Z,17.91
2023-10-01T09:37:08.098Z,17.67
2023-10-01T09:42:30.756Z,18.05
2023-10-01T09:47:34.812Z,17.98
2023-10-01T09:52:50.237Z,17.93
2023-10-01T09:57:53.917Z,18.04
2023-10-01T10:02:55.688Z,18.55
2023-10-01T10:08:12.926Z,18.84
2023-10-01T10:13:40.518Z,18.85
2023-10-01T10:19:06.759Z,18.93
2023-10-01T10:24:19.784Z,18.92
2023-10-01T10:29:23.807Z,18.98
2023-10-01T10:34:26.704Z,18.80
2023-10-01T10:39:46.851Z,19.09
2023-10-01T10:45:26.645Z,19.18
2023-10-01T10:50:50.479Z,19.41
2023-10-01T10:56:01.213Z,19.46
2023-10-01T11:01:16.971Z,19.50
2023-10-01T11:06:24.164Z,19.20
2023-10-01T11:11:40.899Z,19.38
2023-10-01T11:16:46.771Z,19.66
2023-10-01T11:21:56.662Z,19.74
2023-10-01T11:27:27.254Z,19.68
2023-10-01T11:33:05.297Z,19.90
2023-10-01T11:38:15.777Z,20.00
2023-10-01T11:43:28.419Z,19.85
2023-10-01T11:48:35.193Z,19.85
2023-10-01T11:53:59.293Z,20.07
2023-10-01T11:59:01.128Z,20.21
2023-10-01T12:04:03.183Z,20.28
2023-10-01T12:09:05.367Z,20.18
2023-10-01T12:14:10.362Z,20.43
2023-10-01T12:19:24.358Z,20.40
2023-10-01T12:24:29.927Z,20.17
2023-10-01T12:29:43.857Z,20.13
2023-10-01T12:34:46.915Z,20.26
2023-10-01T12:39:49.094Z,20.30
2023-10-01T12:44:51.009Z,20.29
2023-10-01T12:50:00.255Z,20.28
2023-10-01T12:55:05.127Z,20.51
2023-10-01T13:00:42.794Z,20.42
2023-10-01T13:05:49.433Z,20.39
2023-10-01T13:10:52.562Z,20.31
2023-10-01T13:15:56.092Z,20.41
2023-10-01T13:21:09.213Z,20.49
2023-10-01T13:26:25.540Z,20.51
2023-10-01T13:31:32.299Z,20.38
2023-10-01T13:36:56.429Z,20.36
2023-10-01T13:42:16.502Z,20.46
2023-10-01T13:47:36.935Z,20.47
2023-10-01T13:52:57.175Z,20.31
2023-10-01T13:58:17.526Z,20.46
2023-10-01T14:03:37.790Z,20.38
2023-10-01T14:08:45.354Z,20.49
2023-10-01T14:13:49.457Z,20.42
2023-10-01T14:18:55.585Z,20.41
2023-10-01T14:24:19.229Z,20.41
2023-10-01T14:29:23.918Z,20.36
2023-10-01T14:34:25.746Z,20.38
2023-10-01T14:39:33.490Z,20.39
2023-10-01T14:44:43.876Z,20.35
2023-10-01T14:49:45.828Z,20.39
2023-10-01T14:54:47.915Z,20.32
2023-10-01T14:59:49.569Z,20.23
2023-10-01T15:04:51.232Z,20.18
2023-10-01T15:10:06.225Z,20.21
2023-10-01T15:15:29.478Z,20.18
2023-10-01T15:20:48.741Z,20.25
2023-10-01T15:25:50.564Z,20.21
2023-10-01T15:30:52.302Z,20.12
2023-10-01T15:35:54.475Z,20.08
2023-10-01T15:40:56.625Z,20.11
2023-10-01T15:46:14.067Z,20.12
2023-10-01T15:51:26.982Z,20.09
2023-10-01T15:56:34.482Z,20.05
2023-10-01T16:01:36.246Z,20.08
2023-10-01T16:06:39.395Z,19.95
2023-10-01T16:11:41.052Z,19.99
2023-10-01T16:16:42.935Z,19.98
2023-10-01T16:21:45.480Z,19.93
2023-10-01T16:26:47.855Z,19.92
2023-10-01T16:31:49.825Z,19.86
2023-10-01T16:36:52.585Z,19.83
2023-10-01T16:41:54.243Z,19.80
2023-10-01T16:46:59.713Z,19.79
2023-10-01T16:52:03.523Z,19.76
2023-10-01T16:57:13.128Z,19.78
2023-10-01T17:02:19.787Z,19.75
2023-10-01T17:07:22.729Z,19.71
2023-10-01T17:12:24.940Z,19.70
2023-10-01T17:17:28.839Z,19.69
2023-10-01T17:22:30.731Z,19.65
2023-10-01T17:27:32.562Z,19.63
2023-10-01T17:32:34.285Z,19.66
2023-10-01T17:37:36.025Z,19.63
2023-10-01T17:42:37.709Z,19.61
2023-10-01T17:47:45.430Z,19.55
2023-10-01T17:52:48.007Z,19.52
2023-10-01T17:57:49.769Z,19.50
2023-10-01T18:02:51.595Z,19.50
2023-10-01T18:07:54.985Z,19.52
2023-10-01T18:12:58.285Z,19.55
2023-10-01T18:17:59.995Z,19.51
2023-10-01T18:23:01.840Z,19.49
2023-10-01T18:28:03.666Z,19.46
2023-10-01T18:33:06.028Z,19.38
2023-10-01T18:38:12.761Z,19.24
2023-10-01T18:43:18.749Z,19.13
2023-10-01T18:48:20.455Z,19.12
2023-10-01T18:53:22.516Z,19.07
2023-10-01T18:58:24.375Z,18.99
2023-10-01T19:03:26.450Z,18.86
2023-10-01T19:08:33.267Z,18.77
2023-10-01T19:13:35.342Z,18.77
2023-10-01T19:18:37.127Z,18.76
2023-10-01T19:23:42.010Z,18.73
2023-10-01T19:28:43.881Z,18.72
2023-10-01T19:33:45.841Z,18.71
2023-10-01T19:38:50.299Z,18.68
2023-10-01T19:43:52.072Z,18.59
2023-10-01T19:48:53.964Z,18.54
2023-10-01T19:54:13.733Z,18.54
2023-10-01T19:59:16.378Z,18.40
2023-10-01T20:04:19.418Z,18.35
2023-10-01T20:09:33.878Z,18.23
2023-10-01T20:14:42.010Z,18.12
2023-10-01T20:19:44.473Z,18.07
2023-10-01T20:24:50.966Z,18.00
2023-10-01T20:29:57.263Z,18.00
2023-10-01T20:34:59.585Z,17.93
2023-10-01T20:40:09.695Z,17.92
2023-10-01T20:45:25.302Z,17.94
2023-10-01T20:50:40.010Z,17.84
2023-10-01T20:55:42.002Z,17.64
2023-10-01T21:00:51.781Z,17.53
2023-10-01T21:05:56.610Z,17.57
2023-10-01T21:11:02.941Z,17.58
2023-10-01T21:16:05.289Z,17.48
2023-10-01T21:21:07.853Z,17.52
2023-10-01T21:26:09.550Z,17.37
2023-10-01T21:31:21.252Z,17.46
2023-10-01T21:36:23.548Z,17.35
2023-10-01T21:41:29.680Z,17.36
2023-10-01T21:46:39.619Z,17.34
2023-10-01T21:51:47.117Z,17.08
2023-10-01T21:56:49.414Z,17.24
2023-10-01T22:01:54.457Z,17.15
2023-10-01T22:07:00.746Z,17.09
2023-10-01T22:12:03.586Z,17.15
2023-10-01T22:17:06.219Z,17.20
2023-10-01T22:22:08.100Z,17.11
2023-10-01T22:27:13.279Z,17.11
2023-10-01T22:32:15.757Z,16.99
2023-10-01T22:37:18.341Z,16.89
2023-10-01T22:42:23.262Z,16.84
2023-10-01T22:47:26.978Z,16.85
2023-10-01T22:52:32.523Z,16.73
2023-10-01T22:57:42.813Z,16.72
2023-10-01T23:02:53.331Z,16.68
2023-10-01T23:08:08.591Z,16.63
2023-10-01T23:13:13.646Z,16.59
2023-10-01T23:18:27.289Z,16.49
2023-10-01T23:23:30.970Z,16.42
2023-10-01T23:28:38.269Z,16.19
2023-10-01T23:33:40.325Z,16.23
2023-10-01T23:38:57.481Z,16.23
2023-10-01T23:44:00.552Z,16.19
2023-10-01T23:49:06.094Z,16.22
2023-10-01T23:54:09.726Z,16.16
2023-10-01T23:59:29.861Z,16.16
